sensor_id;sensor_type;location;lat;lon;timestamp;P1;durP1;ratioP1;P2;durP2;ratioP2
38787;SDS011;24536;45.488;12.238;2022-11-20T00:02:15;5.68;;;3.05;;
38787;SDS011;24536;45.488;12.238;2022-11-20T00:04:41;5.85;;;3.13;;
38787;SDS011;24536;45.488;12.238;2022-11-20T00:07:07;5.10;;;3.72;;
38787;SDS011;24536;45.488;12.238;2022-11-20T00:09:32;8.15;;;3.65;;
38787;SDS011;24536;45.488;12.238;2022-11-20T00:11:58;5.90;;;3.28;;
38787;SDS011;24536;45.488;12.238;2022-11-20T00:14:23;5.15;;;3.65;;
38787;SDS011;24536;45.488;12.238;2022-11-20T00:16:49;5.50;;;3.33;;
38787;SDS011;24536;45.488;12.238;2022-11-20T00:19:15;4.88;;;3.20;;
38787;SDS011;24536;45.488;12.238;2022-11-20T00:21:40;5.35;;;3.70;;
38787;SDS011;24536;45.488;12.238;2022-11-20T00:24:08;5.47;;;3.47;;
38787;SDS011;24536;45.488;12.238;2022-11-20T00:26:35;5.32;;;3.70;;
38787;SDS011;24536;45.488;12.238;2022-11-20T00:29:01;7.93;;;3.30;;
38787;SDS011;24536;45.488;12.238;2022-11-20T00:31:27;4.80;;;3.15;;
38787;SDS011;24536;45.488;12.238;2022-11-20T00:33:54;4.18;;;3.05;;
38787;SDS011;24536;45.488;12.238;2022-11-20T00:36:20;3.72;;;3.03;;
38787;SDS011;24536;45.488;12.238;2022-11-20T00:38:51;4.07;;;2.83;;
38787;SDS011;24536;45.488;12.238;2022-11-20T00:41:18;3.60;;;3.03;;
38787;SDS011;24536;45.488;12.238;2022-11-20T00:43:44;4.25;;;3.13;;
38787;SDS011;24536;45.488;12.238;2022-11-20T00:46:11;4.38;;;3.10;;
38787;SDS011;24536;45.488;12.238;2022-11-20T00:48:41;3.22;;;2.45;;
38787;SDS011;24536;45.488;12.238;2022-11-20T00:51:08;5.28;;;2.90;;
38787;SDS011;24536;45.488;12.238;2022-11-20T00:53:36;4.45;;;3.47;;
38787;SDS011;24536;45.488;12.238;2022-11-20T00:56:03;3.65;;;2.78;;
38787;SDS011;24536;45.488;12.238;2022-11-20T00:58:35;4.38;;;2.67;;
38787;SDS011;24536;45.488;12.238;2022-11-20T01:01:12;5.43;;;3.35;;
38787;SDS011;24536;45.488;12.238;2022-11-20T01:06:15;3.95;;;2.65;;
38787;SDS011;24536;45.488;12.238;2022-11-20T01:08:43;3.45;;;2.45;;
38787;SDS011;24536;45.488;12.238;2022-11-20T01:11:10;3.47;;;2.30;;
38787;SDS011;24536;45.488;12.238;2022-11-20T01:13:38;4.03;;;2.67;;
38787;SDS011;24536;45.488;12.238;2022-11-20T01:16:05;2.63;;;2.15;;
38787;SDS011;24536;45.488;12.238;2022-11-20T01:18:36;2.83;;;2.00;;
38787;SDS011;24536;45.488;12.238;2022-11-20T01:21:04;2.97;;;2.30;;
38787;SDS011;24536;45.488;12.238;2022-11-20T01:23:35;2.63;;;1.92;;
38787;SDS011;24536;45.488;12.238;2022-11-20T01:26:04;2.45;;;1.90;;
38787;SDS011;24536;45.488;12.238;2022-11-20T01:28:50;2.42;;;1.90;;
38787;SDS011;24536;45.488;12.238;2022-11-20T01:31:24;2.20;;;1.55;;
38787;SDS011;24536;45.488;12.238;2022-11-20T01:33:57;2.47;;;1.77;;
38787;SDS011;24536;45.488;12.238;2022-11-20T01:36:26;6.32;;;1.67;;
38787;SDS011;24536;45.488;12.238;2022-11-20T01:38:54;1.45;;;1.30;;
38787;SDS011;24536;45.488;12.238;2022-11-20T01:41:22;1.90;;;1.50;;
38787;SDS011;24536;45.488;12.238;2022-11-20T01:44:06;1.50;;;1.00;;
38787;SDS011;24536;45.488;12.238;2022-11-20T01:46:35;1.35;;;1.10;;
38787;SDS011;24536;45.488;12.238;2022-11-20T01:49:23;1.15;;;1.05;;
38787;SDS011;24536;45.488;12.238;2022-11-20T01:51:58;1.15;;;1.00;;
38787;SDS011;24536;45.488;12.238;2022-11-20T01:54:34;1.10;;;1.00;;
38787;SDS011;24536;45.488;12.238;2022-11-20T01:57:03;1.58;;;0.93;;
38787;SDS011;24536;45.488;12.238;2022-11-20T01:59:34;1.05;;;0.90;;
38787;SDS011;24536;45.488;12.238;2022-11-20T02:04:30;1.83;;;1.20;;
38787;SDS011;24536;45.488;12.238;2022-11-20T02:06:59;3.95;;;0.82;;
38787;SDS011;24536;45.488;12.238;2022-11-20T02:09:26;0.98;;;0.80;;
38787;SDS011;24536;45.488;12.238;2022-11-20T02:11:53;1.25;;;0.90;;
38787;SDS011;24536;45.488;12.238;2022-11-20T02:14:20;1.23;;;0.93;;
38787;SDS011;24536;45.488;12.238;2022-11-20T02:16:48;1.48;;;0.90;;
38787;SDS011;24536;45.488;12.238;2022-11-20T02:24:26;0.98;;;0.82;;
38787;SDS011;24536;45.488;12.238;2022-11-20T02:26:53;1.55;;;1.10;;
38787;SDS011;24536;45.488;12.238;2022-11-20T02:29:32;1.10;;;0.93;;
38787;SDS011;24536;45.488;12.238;2022-11-20T02:32:04;1.63;;;1.00;;
38787;SDS011;24536;45.488;12.238;2022-11-20T02:34:30;1.58;;;1.15;;
38787;SDS011;24536;45.488;12.238;2022-11-20T02:36:56;1.05;;;0.80;;
38787;SDS011;24536;45.488;12.238;2022-11-20T02:39:22;1.55;;;1.10;;
38787;SDS011;24536;45.488;12.238;2022-11-20T02:41:50;1.52;;;0.93;;
38787;SDS011;24536;45.488;12.238;2022-11-20T02:44:18;1.33;;;1.05;;
38787;SDS011;24536;45.488;12.238;2022-11-20T02:46:44;2.95;;;1.38;;
38787;SDS011;24536;45.488;12.238;2022-11-20T02:49:10;2.47;;;1.50;;
38787;SDS011;24536;45.488;12.238;2022-11-20T02:51:36;1.25;;;1.00;;
38787;SDS011;24536;45.488;12.238;2022-11-20T02:54:02;2.00;;;1.23;;
38787;SDS011;24536;45.488;12.238;2022-11-20T02:56:28;1.00;;;0.90;;
38787;SDS011;24536;45.488;12.238;2022-11-20T02:58:54;2.22;;;1.17;;
38787;SDS011;24536;45.488;12.238;2022-11-20T03:01:20;1.55;;;1.00;;
38787;SDS011;24536;45.488;12.238;2022-11-20T03:03:46;1.63;;;1.00;;
38787;SDS011;24536;45.488;12.238;2022-11-20T03:06:13;1.90;;;1.05;;
38787;SDS011;24536;45.488;12.238;2022-11-20T03:08:40;2.67;;;1.23;;
38787;SDS011;24536;45.488;12.238;2022-11-20T03:11:06;2.03;;;1.00;;
38787;SDS011;24536;45.488;12.238;2022-11-20T03:13:32;1.00;;;0.90;;
38787;SDS011;24536;45.488;12.238;2022-11-20T03:16:04;2.03;;;1.00;;
38787;SDS011;24536;45.488;12.238;2022-11-20T03:18:38;0.77;;;0.70;;
38787;SDS011;24536;45.488;12.238;2022-11-20T03:21:05;1.27;;;1.08;;
38787;SDS011;24536;45.488;12.238;2022-11-20T03:23:31;1.20;;;0.93;;
38787;SDS011;24536;45.488;12.238;2022-11-20T03:26:06;1.40;;;1.00;;
38787;SDS011;24536;45.488;12.238;2022-11-20T03:28:37;1.75;;;0.98;;
38787;SDS011;24536;45.488;12.238;2022-11-20T03:31:07;1.35;;;0.93;;
38787;SDS011;24536;45.488;12.238;2022-11-20T03:33:37;2.40;;;1.08;;
38787;SDS011;24536;45.488;12.238;2022-11-20T03:36:04;0.88;;;0.80;;
38787;SDS011;24536;45.488;12.238;2022-11-20T03:38:32;0.90;;;0.82;;
38787;SDS011;24536;45.488;12.238;2022-11-20T03:40:59;1.33;;;1.08;;
38787;SDS011;24536;45.488;12.238;2022-11-20T03:43:28;1.63;;;0.80;;
38787;SDS011;24536;45.488;12.238;2022-11-20T03:45:54;1.00;;;0.80;;
38787;SDS011;24536;45.488;12.238;2022-11-20T03:48:20;1.92;;;1.00;;
38787;SDS011;24536;45.488;12.238;2022-11-20T03:50:46;1.70;;;0.98;;
38787;SDS011;24536;45.488;12.238;2022-11-20T03:53:13;1.60;;;1.00;;
38787;SDS011;24536;45.488;12.238;2022-11-20T03:55:39;2.17;;;1.10;;
38787;SDS011;24536;45.488;12.238;2022-11-20T03:58:05;1.00;;;0.90;;
38787;SDS011;24536;45.488;12.238;2022-11-20T04:00:30;1.83;;;0.90;;
38787;SDS011;24536;45.488;12.238;2022-11-20T04:02:59;1.48;;;1.10;;
38787;SDS011;24536;45.488;12.238;2022-11-20T04:05:25;1.60;;;1.00;;
38787;SDS011;24536;45.488;12.238;2022-11-20T04:07:51;1.63;;;0.90;;
38787;SDS011;24536;45.488;12.238;2022-11-20T04:10:16;0.95;;;0.75;;
38787;SDS011;24536;45.488;12.238;2022-11-20T04:12:42;2.08;;;0.93;;
38787;SDS011;24536;45.488;12.238;2022-11-20T04:15:08;1.40;;;0.95;;
38787;SDS011;24536;45.488;12.238;2022-11-20T04:17:34;1.25;;;0.80;;
38787;SDS011;24536;45.488;12.238;2022-11-20T04:20:00;1.02;;;0.63;;
38787;SDS011;24536;45.488;12.238;2022-11-20T04:22:26;1.77;;;0.90;;
38787;SDS011;24536;45.488;12.238;2022-11-20T04:24:51;2.08;;;0.93;;
38787;SDS011;24536;45.488;12.238;2022-11-20T04:27:17;0.95;;;0.63;;
38787;SDS011;24536;45.488;12.238;2022-11-20T04:29:43;0.73;;;0.60;;
38787;SDS011;24536;45.488;12.238;2022-11-20T04:32:08;0.88;;;0.75;;
38787;SDS011;24536;45.488;12.238;2022-11-20T04:34:34;1.00;;;0.77;;
38787;SDS011;24536;45.488;12.238;2022-11-20T04:37:00;1.27;;;0.60;;
38787;SDS011;24536;45.488;12.238;2022-11-20T04:39:25;2.90;;;0.85;;
38787;SDS011;24536;45.488;12.238;2022-11-20T04:41:51;0.73;;;0.60;;
38787;SDS011;24536;45.488;12.238;2022-11-20T04:44:35;3.08;;;1.08;;
38787;SDS011;24536;45.488;12.238;2022-11-20T04:47:01;1.17;;;0.60;;
38787;SDS011;24536;45.488;12.238;2022-11-20T04:49:27;2.03;;;1.08;;
38787;SDS011;24536;45.488;12.238;2022-11-20T04:51:53;1.20;;;0.73;;
38787;SDS011;24536;45.488;12.238;2022-11-20T04:54:18;1.33;;;0.60;;
38787;SDS011;24536;45.488;12.238;2022-11-20T04:56:47;1.58;;;1.00;;
38787;SDS011;24536;45.488;12.238;2022-11-20T04:59:12;1.83;;;0.75;;
38787;SDS011;24536;45.488;12.238;2022-11-20T05:01:38;1.25;;;0.80;;
38787;SDS011;24536;45.488;12.238;2022-11-20T05:04:04;0.70;;;0.57;;
38787;SDS011;24536;45.488;12.238;2022-11-20T05:06:30;1.52;;;0.90;;
38787;SDS011;24536;45.488;12.238;2022-11-20T05:08:57;1.80;;;0.70;;
38787;SDS011;24536;45.488;12.238;2022-11-20T05:11:23;1.17;;;0.70;;
38787;SDS011;24536;45.488;12.238;2022-11-20T05:13:50;0.90;;;0.60;;
38787;SDS011;24536;45.488;12.238;2022-11-20T05:16:17;1.15;;;0.70;;
38787;SDS011;24536;45.488;12.238;2022-11-20T05:18:45;2.03;;;0.80;;
38787;SDS011;24536;45.488;12.238;2022-11-20T05:21:11;1.30;;;0.80;;
38787;SDS011;24536;45.488;12.238;2022-11-20T05:23:38;1.00;;;0.77;;
38787;SDS011;24536;45.488;12.238;2022-11-20T05:26:04;1.63;;;1.00;;
38787;SDS011;24536;45.488;12.238;2022-11-20T05:28:31;3.60;;;0.70;;
38787;SDS011;24536;45.488;12.238;2022-11-20T05:31:04;0.90;;;0.70;;
38787;SDS011;24536;45.488;12.238;2022-11-20T05:33:32;0.70;;;0.70;;
38787;SDS011;24536;45.488;12.238;2022-11-20T05:35:58;1.30;;;0.80;;
38787;SDS011;24536;45.488;12.238;2022-11-20T05:38:24;2.00;;;0.90;;
38787;SDS011;24536;45.488;12.238;2022-11-20T05:40:49;1.45;;;0.82;;
38787;SDS011;24536;45.488;12.238;2022-11-20T05:43:15;4.40;;;1.15;;
38787;SDS011;24536;45.488;12.238;2022-11-20T05:45:41;1.42;;;0.80;;
38787;SDS011;24536;45.488;12.238;2022-11-20T05:48:06;1.20;;;0.77;;
38787;SDS011;24536;45.488;12.238;2022-11-20T05:50:32;1.13;;;0.80;;
38787;SDS011;24536;45.488;12.238;2022-11-20T05:52:58;1.58;;;1.00;;
38787;SDS011;24536;45.488;12.238;2022-11-20T05:55:24;1.40;;;1.02;;
38787;SDS011;24536;45.488;12.238;2022-11-20T05:57:52;2.40;;;1.30;;
38787;SDS011;24536;45.488;12.238;2022-11-20T06:00:19;1.67;;;1.10;;
38787;SDS011;24536;45.488;12.238;2022-11-20T06:02:44;1.50;;;1.20;;
38787;SDS011;24536;45.488;12.238;2022-11-20T06:05:10;2.22;;;1.50;;
38787;SDS011;24536;45.488;12.238;2022-11-20T06:07:35;2.78;;;1.40;;
38787;SDS011;24536;45.488;12.238;2022-11-20T06:10:01;1.77;;;1.67;;
38787;SDS011;24536;45.488;12.238;2022-11-20T06:12:27;1.60;;;1.40;;
38787;SDS011;24536;45.488;12.238;2022-11-20T06:14:53;2.03;;;1.63;;
38787;SDS011;24536;45.488;12.238;2022-11-20T06:17:18;1.75;;;1.60;;
38787;SDS011;24536;45.488;12.238;2022-11-20T06:19:44;3.47;;;1.95;;
38787;SDS011;24536;45.488;12.238;2022-11-20T06:22:10;1.98;;;1.48;;
38787;SDS011;24536;45.488;12.238;2022-11-20T06:24:35;3.50;;;1.63;;
38787;SDS011;24536;45.488;12.238;2022-11-20T06:27:01;2.58;;;1.85;;
38787;SDS011;24536;45.488;12.238;2022-11-20T06:29:26;3.15;;;2.08;;
38787;SDS011;24536;45.488;12.238;2022-11-20T06:31:52;2.90;;;1.75;;
38787;SDS011;24536;45.488;12.238;2022-11-20T06:34:18;3.58;;;2.40;;
38787;SDS011;24536;45.488;12.238;2022-11-20T06:36:44;3.08;;;1.77;;
38787;SDS011;24536;45.488;12.238;2022-11-20T06:39:09;2.58;;;1.85;;
38787;SDS011;24536;45.488;12.238;2022-11-20T06:41:35;5.13;;;2.00;;
38787;SDS011;24536;45.488;12.238;2022-11-20T06:44:01;2.22;;;1.85;;
38787;SDS011;24536;45.488;12.238;2022-11-20T06:46:28;2.22;;;1.80;;
38787;SDS011;24536;45.488;12.238;2022-11-20T06:48:53;2.58;;;2.00;;
38787;SDS011;24536;45.488;12.238;2022-11-20T06:51:19;2.35;;;1.80;;
38787;SDS011;24536;45.488;12.238;2022-11-20T06:53:46;4.95;;;1.90;;
38787;SDS011;24536;45.488;12.238;2022-11-20T06:56:11;3.95;;;2.20;;
38787;SDS011;24536;45.488;12.238;2022-11-20T06:58:37;2.70;;;2.15;;
38787;SDS011;24536;45.488;12.238;2022-11-20T07:01:04;3.40;;;1.92;;
38787;SDS011;24536;45.488;12.238;2022-11-20T07:03:38;4.25;;;2.10;;
38787;SDS011;24536;45.488;12.238;2022-11-20T07:06:03;2.42;;;1.92;;
38787;SDS011;24536;45.488;12.238;2022-11-20T07:08:30;3.22;;;1.98;;
38787;SDS011;24536;45.488;12.238;2022-11-20T07:10:59;2.63;;;2.15;;
38787;SDS011;24536;45.488;12.238;2022-11-20T07:13:26;3.13;;;2.00;;
38787;SDS011;24536;45.488;12.238;2022-11-20T07:15:53;2.30;;;2.10;;
38787;SDS011;24536;45.488;12.238;2022-11-20T07:18:19;5.38;;;2.47;;
38787;SDS011;24536;45.488;12.238;2022-11-20T07:20:45;3.25;;;2.08;;
38787;SDS011;24536;45.488;12.238;2022-11-20T07:23:10;2.75;;;1.90;;
38787;SDS011;24536;45.488;12.238;2022-11-20T07:25:36;3.15;;;2.17;;
38787;SDS011;24536;45.488;12.238;2022-11-20T07:28:01;3.00;;;2.03;;
38787;SDS011;24536;45.488;12.238;2022-11-20T07:30:29;4.85;;;2.83;;
38787;SDS011;24536;45.488;12.238;2022-11-20T07:32:55;4.28;;;2.67;;
38787;SDS011;24536;45.488;12.238;2022-11-20T07:35:22;4.57;;;2.92;;
38787;SDS011;24536;45.488;12.238;2022-11-20T07:37:48;4.07;;;2.80;;
38787;SDS011;24536;45.488;12.238;2022-11-20T07:40:16;4.07;;;2.92;;
38787;SDS011;24536;45.488;12.238;2022-11-20T07:42:52;3.33;;;2.63;;
38787;SDS011;24536;45.488;12.238;2022-11-20T07:45:19;3.63;;;2.70;;
38787;SDS011;24536;45.488;12.238;2022-11-20T07:47:46;4.78;;;2.78;;
38787;SDS011;24536;45.488;12.238;2022-11-20T07:50:12;3.75;;;2.90;;
38787;SDS011;24536;45.488;12.238;2022-11-20T07:52:38;3.05;;;2.42;;
38787;SDS011;24536;45.488;12.238;2022-11-20T07:55:05;3.17;;;2.47;;
38787;SDS011;24536;45.488;12.238;2022-11-20T07:57:31;3.10;;;2.60;;
38787;SDS011;24536;45.488;12.238;2022-11-20T07:59:57;3.45;;;2.78;;
38787;SDS011;24536;45.488;12.238;2022-11-20T08:02:23;3.85;;;2.83;;
38787;SDS011;24536;45.488;12.238;2022-11-20T08:04:48;3.60;;;2.50;;
38787;SDS011;24536;45.488;12.238;2022-11-20T08:07:14;3.50;;;2.65;;
38787;SDS011;24536;45.488;12.238;2022-11-20T08:09:40;2.83;;;2.33;;
38787;SDS011;24536;45.488;12.238;2022-11-20T08:12:06;3.28;;;2.50;;
38787;SDS011;24536;45.488;12.238;2022-11-20T08:14:50;4.30;;;2.42;;
38787;SDS011;24536;45.488;12.238;2022-11-20T08:17:16;4.22;;;2.75;;
38787;SDS011;24536;45.488;12.238;2022-11-20T08:19:42;3.85;;;3.00;;
38787;SDS011;24536;45.488;12.238;2022-11-20T08:22:07;4.25;;;3.25;;
38787;SDS011;24536;45.488;12.238;2022-11-20T08:24:33;4.25;;;2.97;;
38787;SDS011;24536;45.488;12.238;2022-11-20T08:26:59;4.03;;;2.90;;
38787;SDS011;24536;45.488;12.238;2022-11-20T08:29:25;5.70;;;3.03;;
38787;SDS011;24536;45.488;12.238;2022-11-20T08:31:51;5.65;;;3.30;;
38787;SDS011;24536;45.488;12.238;2022-11-20T08:34:17;4.78;;;3.05;;
38787;SDS011;24536;45.488;12.238;2022-11-20T08:36:43;4.78;;;3.13;;
38787;SDS011;24536;45.488;12.238;2022-11-20T08:39:10;5.32;;;3.17;;
38787;SDS011;24536;45.488;12.238;2022-11-20T08:41:38;4.97;;;3.45;;
38787;SDS011;24536;45.488;12.238;2022-11-20T08:44:04;4.72;;;3.17;;
38787;SDS011;24536;45.488;12.238;2022-11-20T08:46:35;3.72;;;3.03;;
38787;SDS011;24536;45.488;12.238;2022-11-20T08:49:03;4.20;;;3.25;;
38787;SDS011;24536;45.488;12.238;2022-11-20T08:51:30;4.32;;;3.25;;
38787;SDS011;24536;45.488;12.238;2022-11-20T08:54:12;4.80;;;3.35;;
38787;SDS011;24536;45.488;12.238;2022-11-20T08:56:38;4.30;;;3.17;;
38787;SDS011;24536;45.488;12.238;2022-11-20T08:59:04;4.60;;;3.50;;
38787;SDS011;24536;45.488;12.238;2022-11-20T09:01:29;4.35;;;2.88;;
38787;SDS011;24536;45.488;12.238;2022-11-20T09:03:55;4.47;;;3.33;;
38787;SDS011;24536;45.488;12.238;2022-11-20T09:06:22;4.97;;;3.67;;
38787;SDS011;24536;45.488;12.238;2022-11-20T09:08:51;6.43;;;3.63;;
38787;SDS011;24536;45.488;12.238;2022-11-20T09:11:18;5.25;;;3.00;;
38787;SDS011;24536;45.488;12.238;2022-11-20T09:13:43;5.65;;;3.53;;
38787;SDS011;24536;45.488;12.238;2022-11-20T09:16:09;4.63;;;3.30;;
38787;SDS011;24536;45.488;12.238;2022-11-20T09:18:35;5.20;;;3.53;;
38787;SDS011;24536;45.488;12.238;2022-11-20T09:21:03;5.25;;;3.78;;
38787;SDS011;24536;45.488;12.238;2022-11-20T09:23:31;8.23;;;3.90;;
38787;SDS011;24536;45.488;12.238;2022-11-20T09:26:01;4.95;;;3.55;;
38787;SDS011;24536;45.488;12.238;2022-11-20T09:28:27;4.07;;;3.17;;
38787;SDS011;24536;45.488;12.238;2022-11-20T09:30:53;4.90;;;3.85;;
38787;SDS011;24536;45.488;12.238;2022-11-20T09:33:19;4.10;;;3.00;;
38787;SDS011;24536;45.488;12.238;2022-11-20T09:35:44;4.25;;;2.80;;
38787;SDS011;24536;45.488;12.238;2022-11-20T09:38:10;4.20;;;2.92;;
38787;SDS011;24536;45.488;12.238;2022-11-20T09:40:38;3.13;;;2.67;;
38787;SDS011;24536;45.488;12.238;2022-11-20T09:54:15;4.13;;;3.03;;
38787;SDS011;24536;45.488;12.238;2022-11-20T09:57:02;3.92;;;3.20;;
38787;SDS011;24536;45.488;12.238;2022-11-20T09:59:38;5.18;;;2.70;;
38787;SDS011;24536;45.488;12.238;2022-11-20T10:02:36;5.28;;;2.50;;
38787;SDS011;24536;45.488;12.238;2022-11-20T10:05:13;3.08;;;2.35;;
38787;SDS011;24536;45.488;12.238;2022-11-20T10:10:46;2.85;;;2.10;;
38787;SDS011;24536;45.488;12.238;2022-11-20T10:18:23;4.32;;;2.72;;
38787;SDS011;24536;45.488;12.238;2022-11-20T10:21:17;3.22;;;2.13;;
38787;SDS011;24536;45.488;12.238;2022-11-20T10:29:14;1.25;;;0.82;;
38787;SDS011;24536;45.488;12.238;2022-11-20T10:31:43;1.77;;;1.35;;
38787;SDS011;24536;45.488;12.238;2022-11-20T10:34:33;1.75;;;1.15;;
38787;SDS011;24536;45.488;12.238;2022-11-20T10:37:25;2.08;;;1.30;;
38787;SDS011;24536;45.488;12.238;2022-11-20T10:40:03;2.13;;;1.48;;
38787;SDS011;24536;45.488;12.238;2022-11-20T10:42:44;1.83;;;1.30;;
38787;SDS011;24536;45.488;12.238;2022-11-20T10:45:33;5.57;;;2.30;;
38787;SDS011;24536;45.488;12.238;2022-11-20T10:48:09;2.08;;;1.42;;
38787;SDS011;24536;45.488;12.238;2022-11-20T10:50:57;1.98;;;1.20;;
38787;SDS011;24536;45.488;12.238;2022-11-20T10:56:40;1.73;;;1.40;;
38787;SDS011;24536;45.488;12.238;2022-11-20T11:01:56;2.00;;;1.20;;
38787;SDS011;24536;45.488;12.238;2022-11-20T11:06:54;2.15;;;1.30;;
38787;SDS011;24536;45.488;12.238;2022-11-20T11:09:39;2.72;;;1.50;;
38787;SDS011;24536;45.488;12.238;2022-11-20T11:12:08;2.70;;;1.98;;
38787;SDS011;24536;45.488;12.238;2022-11-20T11:14:41;2.30;;;1.52;;
38787;SDS011;24536;45.488;12.238;2022-11-20T11:17:17;4.43;;;1.50;;
38787;SDS011;24536;45.488;12.238;2022-11-20T11:22:42;1.90;;;1.45;;
38787;SDS011;24536;45.488;12.238;2022-11-20T11:25:31;1.30;;;1.20;;
38787;SDS011;24536;45.488;12.238;2022-11-20T11:28:02;2.30;;;1.70;;
38787;SDS011;24536;45.488;12.238;2022-11-20T11:30:30;2.40;;;1.77;;
38787;SDS011;24536;45.488;12.238;2022-11-20T11:33:09;2.08;;;1.50;;
38787;SDS011;24536;45.488;12.238;2022-11-20T11:35:49;1.95;;;1.75;;
38787;SDS011;24536;45.488;12.238;2022-11-20T11:38:36;4.05;;;1.80;;
38787;SDS011;24536;45.488;12.238;2022-11-20T11:41:09;1.98;;;1.70;;
38787;SDS011;24536;45.488;12.238;2022-11-20T11:43:56;5.22;;;1.90;;
38787;SDS011;24536;45.488;12.238;2022-11-20T11:46:44;3.40;;;1.80;;
38787;SDS011;24536;45.488;12.238;2022-11-20T11:49:18;2.20;;;1.80;;
38787;SDS011;24536;45.488;12.238;2022-11-20T11:51:52;2.20;;;1.67;;
38787;SDS011;24536;45.488;12.238;2022-11-20T11:54:55;1.65;;;1.48;;
38787;SDS011;24536;45.488;12.238;2022-11-20T12:00:17;2.95;;;1.33;;
38787;SDS011;24536;45.488;12.238;2022-11-20T12:07:43;1.45;;;1.13;;
38787;SDS011;24536;45.488;12.238;2022-11-20T12:12:44;0.70;;;0.68;;
38787;SDS011;24536;45.488;12.238;2022-11-20T12:15:19;2.53;;;0.90;;
38787;SDS011;24536;45.488;12.238;2022-11-20T12:17:53;1.83;;;1.00;;
38787;SDS011;24536;45.488;12.238;2022-11-20T12:20:19;1.15;;;0.73;;
38787;SDS011;24536;45.488;12.238;2022-11-20T12:25:39;0.95;;;0.70;;
38787;SDS011;24536;45.488;12.238;2022-11-20T12:28:13;1.02;;;0.93;;
38787;SDS011;24536;45.488;12.238;2022-11-20T12:33:41;0.70;;;0.68;;
38787;SDS011;24536;45.488;12.238;2022-11-20T12:36:25;0.68;;;0.60;;
38787;SDS011;24536;45.488;12.238;2022-11-20T12:45:06;0.80;;;0.60;;
38787;SDS011;24536;45.488;12.238;2022-11-20T12:53:25;3.50;;;0.75;;
38787;SDS011;24536;45.488;12.238;2022-11-20T13:06:46;1.10;;;0.90;;
38787;SDS011;24536;45.488;12.238;2022-11-20T13:09:13;1.05;;;0.95;;
38787;SDS011;24536;45.488;12.238;2022-11-20T13:11:44;1.63;;;0.90;;
38787;SDS011;24536;45.488;12.238;2022-11-20T13:17:00;0.70;;;0.70;;
38787;SDS011;24536;45.488;12.238;2022-11-20T13:19:36;1.48;;;1.00;;
38787;SDS011;24536;45.488;12.238;2022-11-20T13:22:03;0.82;;;0.70;;
38787;SDS011;24536;45.488;12.238;2022-11-20T13:24:29;1.27;;;0.70;;
38787;SDS011;24536;45.488;12.238;2022-11-20T13:26:59;1.17;;;0.80;;
38787;SDS011;24536;45.488;12.238;2022-11-20T13:29:37;1.83;;;0.73;;
38787;SDS011;24536;45.488;12.238;2022-11-20T13:32:15;2.95;;;1.10;;
38787;SDS011;24536;45.488;12.238;2022-11-20T13:34:56;1.20;;;1.05;;
38787;SDS011;24536;45.488;12.238;2022-11-20T13:37:29;1.83;;;1.23;;
38787;SDS011;24536;45.488;12.238;2022-11-20T13:42:39;1.52;;;0.88;;
38787;SDS011;24536;45.488;12.238;2022-11-20T13:45:26;1.65;;;0.80;;
38787;SDS011;24536;45.488;12.238;2022-11-20T13:47:53;0.75;;;0.55;;
38787;SDS011;24536;45.488;12.238;2022-11-20T13:56:01;1.27;;;0.60;;
38787;SDS011;24536;45.488;12.238;2022-11-20T13:58:51;0.88;;;0.70;;
38787;SDS011;24536;45.488;12.238;2022-11-20T14:01:29;0.98;;;0.70;;
38787;SDS011;24536;45.488;12.238;2022-11-20T14:03:56;1.23;;;0.53;;
38787;SDS011;24536;45.488;12.238;2022-11-20T14:06:29;2.15;;;0.55;;
38787;SDS011;24536;45.488;12.238;2022-11-20T14:08:57;1.15;;;0.70;;
38787;SDS011;24536;45.488;12.238;2022-11-20T14:11:24;0.52;;;0.50;;
38787;SDS011;24536;45.488;12.238;2022-11-20T14:16:23;1.35;;;0.60;;
38787;SDS011;24536;45.488;12.238;2022-11-20T14:18:49;1.05;;;0.60;;
38787;SDS011;24536;45.488;12.238;2022-11-20T14:21:25;1.65;;;0.77;;
38787;SDS011;24536;45.488;12.238;2022-11-20T14:23:53;1.00;;;0.57;;
38787;SDS011;24536;45.488;12.238;2022-11-20T14:26:29;1.08;;;0.60;;
38787;SDS011;24536;45.488;12.238;2022-11-20T14:28:55;0.70;;;0.50;;
38787;SDS011;24536;45.488;12.238;2022-11-20T14:31:23;1.20;;;0.80;;
38787;SDS011;24536;45.488;12.238;2022-11-20T14:33:51;1.40;;;0.85;;
38787;SDS011;24536;45.488;12.238;2022-11-20T14:36:21;1.70;;;0.82;;
38787;SDS011;24536;45.488;12.238;2022-11-20T14:38:49;1.13;;;0.80;;
38787;SDS011;24536;45.488;12.238;2022-11-20T14:41:20;2.45;;;0.60;;
38787;SDS011;24536;45.488;12.238;2022-11-20T14:43:48;3.60;;;1.15;;
38787;SDS011;24536;45.488;12.238;2022-11-20T14:46:20;0.80;;;0.52;;
38787;SDS011;24536;45.488;12.238;2022-11-20T14:48:47;1.15;;;0.68;;
38787;SDS011;24536;45.488;12.238;2022-11-20T14:51:37;1.63;;;0.75;;
38787;SDS011;24536;45.488;12.238;2022-11-20T14:54:17;1.40;;;0.70;;
38787;SDS011;24536;45.488;12.238;2022-11-20T14:56:56;1.02;;;0.77;;
38787;SDS011;24536;45.488;12.238;2022-11-20T14:59:30;1.02;;;0.70;;
38787;SDS011;24536;45.488;12.238;2022-11-20T15:01:59;1.48;;;0.80;;
38787;SDS011;24536;45.488;12.238;2022-11-20T15:04:28;2.13;;;1.05;;
38787;SDS011;24536;45.488;12.238;2022-11-20T15:06:54;1.25;;;0.80;;
38787;SDS011;24536;45.488;12.238;2022-11-20T15:09:21;1.35;;;0.85;;
38787;SDS011;24536;45.488;12.238;2022-11-20T15:12:05;1.95;;;0.80;;
38787;SDS011;24536;45.488;12.238;2022-11-20T15:14:31;1.27;;;0.80;;
38787;SDS011;24536;45.488;12.238;2022-11-20T15:16:59;1.92;;;1.00;;
38787;SDS011;24536;45.488;12.238;2022-11-20T15:19:25;1.23;;;0.93;;
38787;SDS011;24536;45.488;12.238;2022-11-20T15:21:52;1.63;;;0.85;;
38787;SDS011;24536;45.488;12.238;2022-11-20T15:24:18;2.60;;;1.00;;
38787;SDS011;24536;45.488;12.238;2022-11-20T15:26:44;3.42;;;1.10;;
38787;SDS011;24536;45.488;12.238;2022-11-20T15:29:14;2.13;;;1.10;;
38787;SDS011;24536;45.488;12.238;2022-11-20T15:31:43;1.30;;;1.00;;
38787;SDS011;24536;45.488;12.238;2022-11-20T15:34:13;2.53;;;0.90;;
38787;SDS011;24536;45.488;12.238;2022-11-20T15:36:40;1.88;;;0.90;;
38787;SDS011;24536;45.488;12.238;2022-11-20T15:39:07;1.30;;;0.80;;
38787;SDS011;24536;45.488;12.238;2022-11-20T15:41:33;1.40;;;0.80;;
38787;SDS011;24536;45.488;12.238;2022-11-20T15:43:59;2.10;;;0.80;;
38787;SDS011;24536;45.488;12.238;2022-11-20T15:46:26;2.60;;;1.23;;
38787;SDS011;24536;45.488;12.238;2022-11-20T15:48:54;2.45;;;0.90;;
38787;SDS011;24536;45.488;12.238;2022-11-20T15:51:31;1.73;;;0.93;;
38787;SDS011;24536;45.488;12.238;2022-11-20T15:54:03;1.10;;;1.00;;
38787;SDS011;24536;45.488;12.238;2022-11-20T15:56:36;3.45;;;1.20;;
38787;SDS011;24536;45.488;12.238;2022-11-20T15:59:02;1.65;;;1.10;;
38787;SDS011;24536;45.488;12.238;2022-11-20T16:01:28;1.50;;;1.27;;
38787;SDS011;24536;45.488;12.238;2022-11-20T16:03:53;5.00;;;1.38;;
38787;SDS011;24536;45.488;12.238;2022-11-20T16:06:19;2.40;;;1.48;;
38787;SDS011;24536;45.488;12.238;2022-11-20T16:08:46;7.75;;;4.00;;
38787;SDS011;24536;45.488;12.238;2022-11-20T16:11:13;7.95;;;4.68;;
38787;SDS011;24536;45.488;12.238;2022-11-20T16:13:41;8.82;;;4.70;;
38787;SDS011;24536;45.488;12.238;2022-11-20T16:16:43;5.60;;;2.83;;
38787;SDS011;24536;45.488;12.238;2022-11-20T16:19:10;5.80;;;2.72;;
38787;SDS011;24536;45.488;12.238;2022-11-20T16:21:37;3.60;;;2.38;;
38787;SDS011;24536;45.488;12.238;2022-11-20T16:24:06;4.05;;;2.25;;
38787;SDS011;24536;45.488;12.238;2022-11-20T16:26:35;3.78;;;2.00;;